Time,TemperatureF,DewpointF,PressureIn,WindDirection,WindDirectionDegrees,WindSpeedMPH,WindSpeedGustMPH,Humidity,HourlyPrecipIn,Conditions,Clouds,dailyrainin,SoftwareType,DateUTC
2013-01-29 00:03:00,18.9,15.1,29.67,SE,128,2.3,2.3,85,0.00,CLR,,0.00,WeatherDisplay:10.37,2013-01-29 07:03:00,
2013-01-29 00:08:00,18.9,15.1,29.67,SE,141,1.2,1.2,85,0.00,CLR,,0.00,WeatherDisplay:10.37,2013-01-29 07:08:00,
2013-01-29 00:13:00,18.9,15.1,29.67,SE,141,0.0,0.0,85,0.00,CLR,,0.00,WeatherDisplay:10.37,2013-01-29 07:13:00,
2013-01-29 00:18:00,18.9,15.1,29.70,SE,141,0.0,0.0,85,0.00,CLR,,0.00,WeatherDisplay:10.37,2013-01-29 07:18:00,
2013-01-29 00:23:00,18.9,15.1,29.70,SE,141,2.3,2.3,85,0.00,CLR,,0.00,WeatherDisplay:10.37,2013-01-29 07:23:00,
2013-01-29 00:28:00,18.9,15.1,29.70,SE,141,3.5,3.5,85,0.00,CLR,,0.00,WeatherDisplay:10.37,2013-01-29 07:28:00,
2013-01-29 00:33:00,18.9,15.1,29.70,SE,141,2.3,2.3,85,0.00,CLR,,0.00,WeatherDisplay:10.37,2013-01-29 07:33:00,
2013-01-29 00:38:00,18.8,15.0,29.70,SE,141,1.2,1.2,85,0.00,CLR,,0.00,WeatherDisplay:10.37,2013-01-29 07:38:00,
2013-01-29 00:43:00,18.6,14.6,29.70,SW,228,4.6,4.6,84,0.00,CLR,,0.00,WeatherDisplay:10.37,2013-01-29 07:43:00,
2013-01-29 00:48:00,18.6,14.6,29.69,SW,228,2.3,2.3,84,0.00,CLR,,0.00,WeatherDisplay:10.37,2013-01-29 07:48:00,
2013-01-29 00:53:00,18.4,13.8,29.69,WSW,247,11.5,11.5,82,0.00,CLR,,0.00,WeatherDisplay:10.37,2013-01-29 07:53:00,
2013-01-29 00:58:00,18.1,12.7,29.69,SW,230,11.5,11.5,79,0.00,CLR,,0.00,WeatherDisplay:10.37,2013-01-29 07:58:00,
2013-01-29 01:03:00,18.0,11.7,29.70,SW,234,12.0,12.0,76,0.00,CLR,,0.00,WeatherDisplay:10.37,2013-01-29 08:03:00,
2013-01-29 01:08:00,17.8,11.5,29.70,SW,224,8.1,8.1,76,0.00,CLR,,0.00,WeatherDisplay:10.37,2013-01-29 08:08:00,
2013-01-29 01:13:00,17.8,11.2,29.70,SW,234,8.1,8.1,75,0.00,CLR,,0.00,WeatherDisplay:10.37,2013-01-29 08:13:00,
2013-01-29 01:18:00,17.8,10.9,29.70,WSW,244,11.5,11.5,74,0.00,CLR,,0.00,WeatherDisplay:10.37,2013-01-29 08:18:00,
2013-01-29 01:23:00,17.7,10.5,29.70,SW,230,8.0,8.0,73,0.00,CLR,,0.00,WeatherDisplay:10.37,2013-01-29 08:23:00,
2013-01-29 01:28:00,17.7,10.5,29.70,WSW,242,11.5,11.5,73,0.00,CLR,,0.00,WeatherDisplay:10.37,2013-01-29 08:28:00,
2013-01-29 01:33:00,17.7,10.2,29.70,WSW,251,8.1,8.1,72,0.00,CLR,,0.00,WeatherDisplay:10.37,2013-01-29 08:33:00,
2013-01-29 01:38:00,17.7,9.9,29.70,SW,223,6.0,6.0,71,0.00,CLR,,0.00,WeatherDisplay:10.37,2013-01-29 08:38:00,
2013-01-29 01:43:00,17.5,9.4,29.70,WSW,241,5.8,5.8,70,0.00,CLR,,0.00,WeatherDisplay:10.37,2013-01-29 08:43:00,
2013-01-29 01:48:00,17.2,9.1,29.70,WSW,252,5.0,5.0,70,0.00,CLR,,0.00,WeatherDisplay:10.37,2013-01-29 08:48:00,
2013-01-29 01:53:00,17.2,9.1,29.70,WSW,251,5.8,5.8,70,0.00,CLR,,0.00,WeatherDisplay:10.37,2013-01-29 08:53:00,
2013-01-29 01:58:00,17.0,8.3,29.70,SW,234,11.5,11.5,68,0.00,CLR,,0.00,WeatherDisplay:10.37,2013-01-29 08:58:00,
2013-01-29 02:03:00,16.9,8.2,29.69,SW,235,5.8,5.8,68,0.00,CLR,,0.00,WeatherDisplay:10.37,2013-01-29 09:03:00,
2013-01-29 02:08:00,16.7,7.6,29.69,West,272,6.9,6.9,67,0.00,CLR,,0.00,WeatherDisplay:10.37,2013-01-29 09:08:00,
2013-01-29 02:13:00,16.5,6.8,29.69,WSW,241,5.8,5.8,65,0.00,CLR,,0.00,WeatherDisplay:10.37,2013-01-29 09:13:00,
2013-01-29 02:18:00,16.1,6.1,29.75,WSW,244,3.5,3.5,64,0.00,CLR,,0.00,WeatherDisplay:10.37,2013-01-29 09:18:00,
2013-01-29 02:23:00,15.7,5.7,29.75,WSW,237,5.8,5.8,64,0.00,CLR,,0.00,WeatherDisplay:10.37,2013-01-29 09:23:00,
2013-01-29 02:28:00,15.7,5.3,29.75,WSW,237,5.8,5.8,63,0.00,CLR,,0.00,WeatherDisplay:10.37,2013-01-29 09:28:00,
2013-01-29 02:33:00,15.7,5.0,29.74,WSW,249,4.6,4.6,62,0.00,CLR,,0.00,WeatherDisplay:10.37,2013-01-29 09:33:00,
2013-01-29 02:38:00,15.6,5.2,29.74,WSW,248,4.6,4.6,63,0.00,CLR,,0.00,WeatherDisplay:10.37,2013-01-29 09:38:00,
2013-01-29 02:43:00,15.6,4.9,29.74,West,259,4.6,4.6,62,0.00,CLR,,0.00,WeatherDisplay:10.37,2013-01-29 09:43:00,
2013-01-29 02:48:00,15.6,4.9,29.75,West,262,4.6,4.6,62,0.00,CLR,,0.00,WeatherDisplay:10.37,2013-01-29 09:48:00,
2013-01-29 02:53:00,15.7,4.6,29.75,WSW,237,8.1,8.1,61,0.00,CLR,,0.00,WeatherDisplay:10.37,2013-01-29 09:53:00,
2013-01-29 02:58:00,16.1,3.5,29.75,WSW,251,10.4,10.4,57,0.00,CLR,,0.00,WeatherDisplay:10.37,2013-01-29 09:58:00,
2013-01-29 03:03:00,16.2,3.2,29.76,WSW,241,8.1,8.1,56,0.00,CLR,,0.00,WeatherDisplay:10.37,2013-01-29 10:03:00,
2013-01-29 03:08:00,16.1,3.1,29.76,WSW,237,8.1,8.1,56,0.00,CLR,,0.00,WeatherDisplay:10.37,2013-01-29 10:08:00,
2013-01-29 03:13:00,15.7,2.8,29.76,West,278,3.5,3.5,56,0.00,CLR,,0.00,WeatherDisplay:10.37,2013-01-29 10:13:00,
2013-01-29 03:18:00,15.4,2.9,29.74,WSW,248,3.5,3.5,57,0.00,CLR,,0.00,WeatherDisplay:10.37,2013-01-29 10:18:00,
2013-01-29 03:23:00,15.2,2.7,29.74,WSW,254,6.9,6.9,57,0.00,CLR,,0.00,WeatherDisplay:10.37,2013-01-29 10:23:00,
2013-01-29 03:28:00,15.4,1.7,29.74,SSW,208,10.4,10.4,54,0.00,CLR,,0.00,WeatherDisplay:10.37,2013-01-29 10:28:00,
2013-01-29 03:33:00,16.1,1.1,29.74,WSW,248,12.7,12.7,51,0.00,CLR,,0.00,WeatherDisplay:10.37,2013-01-29 10:33:00,
2013-01-29 03:38:00,16.4,0.5,29.74,WSW,245,16.1,16.1,49,0.00,CLR,,0.00,WeatherDisplay:10.37,2013-01-29 10:38:00,
2013-01-29 03:43:00,16.4,0.5,29.74,SW,220,14.0,14.0,49,0.00,CLR,,0.00,WeatherDisplay:10.37,2013-01-29 10:43:00,
2013-01-29 03:48:00,16.2,0.4,29.74,SW,225,16.1,16.1,49,0.00,CLR,,0.00,WeatherDisplay:10.37,2013-01-29 10:48:00,
2013-01-29 03:53:00,16.2,-0.1,29.74,SSW,211,11.5,11.5,48,0.00,CLR,,0.00,WeatherDisplay:10.37,2013-01-29 10:53:00,
2013-01-29 03:58:00,16.1,-0.2,29.74,SW,223,11.5,11.5,48,0.00,CLR,,0.00,WeatherDisplay:10.37,2013-01-29 10:58:00,
2013-01-29 04:03:00,16.2,-1.0,29.74,SW,230,16.1,16.1,46,0.00,CLR,,0.00,WeatherDisplay:10.37,2013-01-29 11:03:00,
2013-01-29 04:08:00,16.1,-0.6,29.74,WSW,249,13.8,13.8,47,0.00,CLR,,0.00,WeatherDisplay:10.37,2013-01-29 11:08:00,
2013-01-29 04:13:00,15.7,-1.0,29.74,WSW,242,17.3,17.3,47,0.00,CLR,,0.00,WeatherDisplay:10.37,2013-01-29 11:13:00,
2013-01-29 04:18:00,15.4,-0.8,29.79,WSW,258,13.0,13.0,48,0.00,CLR,,0.00,WeatherDisplay:10.37,2013-01-29 11:18:00,
2013-01-29 04:23:00,15.2,0.3,29.79,SW,230,13.8,13.8,51,0.00,CLR,,0.00,WeatherDisplay:10.37,2013-01-29 11:23:00,
2013-01-29 04:28:00,14.8,0.7,29.79,WSW,244,10.4,10.4,53,0.00,CLR,,0.00,WeatherDisplay:10.37,2013-01-29 11:28:00,
2013-01-29 04:33:00,14.6,1.3,29.78,SW,225,11.5,11.5,55,0.00,CLR,,0.00,WeatherDisplay:10.37,2013-01-29 11:33:00,
2013-01-29 04:38:00,14.6,1.3,29.78,WSW,247,10.4,10.4,55,0.00,CLR,,0.00,WeatherDisplay:10.37,2013-01-29 11:38:00,
2013-01-29 04:43:00,14.4,0.8,29.78,SW,230,10.4,10.4,54,0.00,CLR,,0.00,WeatherDisplay:10.37,2013-01-29 11:43:00,
2013-01-29 04:48:00,14.4,0.8,29.80,SW,235,11.5,11.5,54,0.00,CLR,,0.00,WeatherDisplay:10.37,2013-01-29 11:48:00,
2013-01-29 04:53:00,14.6,0.1,29.80,SW,228,11.5,11.5,52,0.00,CLR,,0.00,WeatherDisplay:10.37,2013-01-29 11:53:00,
2013-01-29 04:58:00,14.4,0.0,29.80,SW,232,10.4,10.4,52,0.00,CLR,,0.00,WeatherDisplay:10.37,2013-01-29 11:58:00,
2013-01-29 05:03:00,14.4,-0.5,29.79,SW,234,7.0,7.0,51,0.00,CLR,,0.00,WeatherDisplay:10.37,2013-01-29 12:03:00,
2013-01-29 05:08:00,14.4,-0.5,29.79,SW,220,8.1,8.1,51,0.00,CLR,,0.00,WeatherDisplay:10.37,2013-01-29 12:08:00,
2013-01-29 05:13:00,14.1,-1.6,29.79,WSW,254,5.8,5.8,49,0.00,CLR,,0.00,WeatherDisplay:10.37,2013-01-29 12:13:00,
2013-01-29 05:18:00,14.4,-1.3,29.79,SW,230,10.4,10.4,49,0.00,CLR,,0.00,WeatherDisplay:10.37,2013-01-29 12:18:00,
2013-01-29 05:23:00,14.3,-1.4,29.79,SW,228,8.0,8.0,49,0.00,CLR,,0.00,WeatherDisplay:10.37,2013-01-29 12:23:00,
2013-01-29 05:28:00,14.0,-1.7,29.79,WSW,237,8.1,8.1,49,0.00,CLR,,0.00,WeatherDisplay:10.37,2013-01-29 12:28:00,
2013-01-29 05:33:00,14.1,-2.5,29.79,WSW,237,11.5,11.5,47,0.00,CLR,,0.00,WeatherDisplay:10.37,2013-01-29 12:33:00,
2013-01-29 05:38:00,14.3,-3.7,29.79,WSW,247,6.9,6.9,44,0.00,CLR,,0.00,WeatherDisplay:10.37,2013-01-29 12:38:00,
2013-01-29 05:43:00,14.6,-4.4,29.79,WSW,256,11.5,11.5,42,0.00,CLR,,0.00,WeatherDisplay:10.37,2013-01-29 12:43:00,
2013-01-29 05:48:00,14.6,-4.4,29.78,WSW,245,13.8,13.8,42,0.00,CLR,,0.00,WeatherDisplay:10.37,2013-01-29 12:48:00,
2013-01-29 05:53:00,14.3,-4.2,29.78,WNW,285,16.0,16.0,43,0.00,CLR,,0.00,WeatherDisplay:10.37,2013-01-29 12:53:00,
2013-01-29 05:58:00,14.4,-5.1,29.78,West,264,14.0,14.0,41,0.00,CLR,,0.00,WeatherDisplay:10.37,2013-01-29 12:58:00,
2013-01-29 06:03:00,14.3,-5.1,29.80,WSW,254,8.1,8.1,41,0.00,CLR,,0.00,WeatherDisplay:10.37,2013-01-29 13:03:00,
2013-01-29 06:08:00,14.4,-5.6,29.80,SW,227,17.3,17.3,40,0.00,CLR,,0.00,WeatherDisplay:10.37,2013-01-29 13:08:00,
2013-01-29 06:13:00,14.4,-6.1,29.80,WSW,245,12.7,12.7,39,0.00,CLR,,0.00,WeatherDisplay:10.37,2013-01-29 13:13:00,
2013-01-29 06:18:00,14.3,-5.7,29.79,WSW,245,20.0,20.0,40,0.00,CLR,,0.00,WeatherDisplay:10.37,2013-01-29 13:18:00,
2013-01-29 06:23:00,14.4,-6.6,29.79,WSW,237,19.6,19.6,38,0.00,CLR,,0.00,WeatherDisplay:10.37,2013-01-29 13:23:00,
2013-01-29 06:28:00,14.3,-6.2,29.79,WSW,238,16.1,16.1,39,0.00,CLR,,0.00,WeatherDisplay:10.37,2013-01-29 13:28:00,
2013-01-29 06:33:00,14.3,-6.2,29.79,WNW,290,13.8,13.8,39,0.00,CLR,,0.00,WeatherDisplay:10.37,2013-01-29 13:33:00,
2013-01-29 06:38:00,14.4,-7.2,29.79,SW,231,21.9,21.9,37,0.00,CLR,,0.00,WeatherDisplay:10.37,2013-01-29 13:38:00,
2013-01-29 06:43:00,14.3,-6.2,29.79,WSW,249,17.3,17.3,39,0.00,CLR,,0.00,WeatherDisplay:10.37,2013-01-29 13:43:00,
2013-01-29 06:48:00,14.1,-6.9,29.79,WSW,245,20.7,20.7,38,0.00,CLR,,0.00,WeatherDisplay:10.37,2013-01-29 13:48:00,
2013-01-29 06:53:00,14.3,-6.7,29.79,SSW,194,12.7,12.7,38,0.00,CLR,,0.00,WeatherDisplay:10.37,2013-01-29 13:53:00,
2013-01-29 06:58:00,14.1,-6.9,29.79,WSW,252,12.7,12.7,38,0.00,CLR,,0.00,WeatherDisplay:10.37,2013-01-29 13:58:00,
2013-01-29 07:03:00,13.8,-5.6,29.79,West,262,11.5,11.5,41,0.00,CLR,,0.00,WeatherDisplay:10.37,2013-01-29 14:03:00,
2013-01-29 07:08:00,13.6,-5.8,29.79,WSW,238,11.5,11.5,41,0.00,CLR,,0.00,WeatherDisplay:10.37,2013-01-29 14:08:00,
2013-01-29 07:13:00,13.5,-5.4,29.79,WSW,242,7.0,7.0,42,0.00,CLR,,0.00,WeatherDisplay:10.37,2013-01-29 14:13:00,
2013-01-29 07:18:00,13.3,-5.6,29.83,SW,217,10.4,10.4,42,0.00,CLR,,0.00,WeatherDisplay:10.37,2013-01-29 14:18:00,
2013-01-29 07:23:00,13.1,-5.7,29.83,West,275,13.8,13.8,42,0.00,CLR,,0.00,WeatherDisplay:10.37,2013-01-29 14:23:00,
2013-01-29 07:28:00,13.3,-6.6,29.83,West,265,11.0,11.0,40,0.00,CLR,,0.00,WeatherDisplay:10.37,2013-01-29 14:28:00,
2013-01-29 07:33:00,13.1,-6.2,29.83,West,265,10.0,10.0,41,0.00,CLR,,0.00,WeatherDisplay:10.37,2013-01-29 14:33:00,
2013-01-29 07:38:00,13.1,-6.7,29.83,West,265,8.1,8.1,40,0.00,CLR,,0.00,WeatherDisplay:10.37,2013-01-29 14:38:00,
2013-01-29 07:43:00,13.1,-6.2,29.83,West,264,8.1,8.1,41,0.00,CLR,,0.00,WeatherDisplay:10.37,2013-01-29 14:43:00,
2013-01-29 07:48:00,13.1,-6.7,29.84,West,264,11.5,11.5,40,0.00,CLR,,0.00,WeatherDisplay:10.37,2013-01-29 14:48:00,
2013-01-29 07:53:00,12.9,-6.9,29.84,West,264,6.9,6.9,40,0.00,CLR,,0.00,WeatherDisplay:10.37,2013-01-29 14:53:00,
2013-01-29 07:58:00,12.9,-6.9,29.84,West,262,11.5,11.5,40,0.00,CLR,,0.00,WeatherDisplay:10.37,2013-01-29 14:58:00,
2013-01-29 08:03:00,12.8,-6.5,29.84,West,262,10.4,10.4,41,0.00,CLR,,0.00,WeatherDisplay:10.37,2013-01-29 15:03:00,
2013-01-29 08:08:00,12.8,-6.0,29.84,West,261,11.5,11.5,42,0.00,CLR,,0.00,WeatherDisplay:10.37,2013-01-29 15:08:00,
2013-01-29 08:13:00,12.8,-6.5,29.84,SW,235,16.1,16.1,41,0.00,CLR,,0.00,WeatherDisplay:10.37,2013-01-29 15:13:00,
2013-01-29 08:18:00,12.8,-6.0,29.85,SW,231,17.3,17.3,42,0.00,CLR,,0.00,WeatherDisplay:10.37,2013-01-29 15:18:00,
2013-01-29 08:23:00,12.8,-5.5,29.85,SW,221,12.0,12.0,43,0.00,CLR,,0.00,WeatherDisplay:10.37,2013-01-29 15:23:00,
2013-01-29 08:28:00,12.8,-5.5,29.85,WSW,242,19.6,19.6,43,0.00,CLR,,0.00,WeatherDisplay:10.37,2013-01-29 15:28:00,
2013-01-29 08:33:00,12.8,-6.0,29.85,SW,234,19.6,19.6,42,0.00,CLR,,0.00,WeatherDisplay:10.37,2013-01-29 15:33:00,
2013-01-29 08:38:00,12.9,-5.9,29.85,SW,223,12.7,12.7,42,0.00,CLR,,0.00,WeatherDisplay:10.37,2013-01-29 15:38:00,
2013-01-29 08:43:00,12.8,-5.5,29.85,WSW,240,14.0,14.0,43,0.00,CLR,,0.00,WeatherDisplay:10.37,2013-01-29 15:43:00,
2013-01-29 08:48:00,12.9,-5.9,29.85,WSW,241,19.6,19.6,42,0.00,CLR,,0.00,WeatherDisplay:10.37,2013-01-29 15:48:00,
2013-01-29 08:53:00,13.3,-5.6,29.85,SW,221,18.4,18.4,42,0.00,CLR,,0.00,WeatherDisplay:10.37,2013-01-29 15:53:00,
2013-01-29 08:58:00,13.6,-5.8,29.85,WSW,245,16.1,16.1,41,0.00,CLR,,0.00,WeatherDisplay:10.37,2013-01-29 15:58:00,
2013-01-29 09:06:00,14.4,-5.6,29.83,West,265,12.7,12.7,40,0.00,CLR,,0.00,WeatherDisplay:10.37,2013-01-29 16:06:00,
2013-01-29 09:11:00,14.8,-6.3,29.83,WSW,248,17.3,17.3,38,0.00,CLR,,0.00,WeatherDisplay:10.37,2013-01-29 16:11:00,
2013-01-29 09:16:00,15.1,-6.5,29.83,SW,218,12.7,12.7,37,0.00,CLR,,0.00,WeatherDisplay:10.37,2013-01-29 16:16:00,
2013-01-29 09:21:00,15.4,-7.4,29.83,SSW,201,13.8,13.8,35,0.00,CLR,,0.00,WeatherDisplay:10.37,2013-01-29 16:21:00,
2013-01-29 09:26:00,15.6,-6.7,29.83,WSW,238,12.7,12.7,36,0.00,CLR,,0.00,WeatherDisplay:10.37,2013-01-29 16:26:00,
2013-01-29 09:32:00,15.9,-7.0,29.83,SSW,203,8.1,8.1,35,0.00,CLR,,0.00,WeatherDisplay:10.37,2013-01-29 16:32:00,
2013-01-29 09:37:00,16.1,-7.4,29.83,WSW,249,17.3,17.3,34,0.00,CLR,,0.00,WeatherDisplay:10.37,2013-01-29 16:37:00,
2013-01-29 09:42:00,16.9,-7.3,29.83,SW,230,10.4,10.4,33,0.00,CLR,,0.00,WeatherDisplay:10.37,2013-01-29 16:42:00,
2013-01-29 09:47:00,17.2,-9.0,29.81,SW,225,18.4,18.4,30,0.00,CLR,,0.00,WeatherDisplay:10.37,2013-01-29 16:47:00,
2013-01-29 09:52:00,17.0,-8.5,29.81,West,262,20.7,20.7,31,0.00,CLR,,0.00,WeatherDisplay:10.37,2013-01-29 16:52:00,
2013-01-29 09:57:00,17.0,-7.8,29.81,West,279,24.2,24.2,32,0.00,CLR,,0.00,WeatherDisplay:10.37,2013-01-29 16:57:00,
2013-01-29 10:02:00,17.5,-7.4,29.81,WNW,285,11.5,11.5,32,0.00,CLR,,0.00,WeatherDisplay:10.37,2013-01-29 17:02:00,
2013-01-29 10:07:00,18.4,-7.3,29.81,West,280,12.7,12.7,31,0.00,CLR,,0.00,WeatherDisplay:10.37,2013-01-29 17:07:00,
2013-01-29 10:12:00,18.4,-7.3,29.81,SW,228,12.0,12.0,31,0.00,CLR,,0.00,WeatherDisplay:10.37,2013-01-29 17:12:00,
2013-01-29 10:17:00,18.6,-7.1,29.83,SW,228,11.5,11.5,31,0.00,CLR,,0.00,WeatherDisplay:10.37,2013-01-29 17:17:00,
2013-01-29 10:22:00,18.4,-7.9,29.83,SSW,201,18.4,18.4,30,0.00,CLR,,0.00,WeatherDisplay:10.37,2013-01-29 17:22:00,
2013-01-29 10:27:00,18.4,-6.6,29.83,SSW,207,18.4,18.4,32,0.00,CLR,,0.00,WeatherDisplay:10.37,2013-01-29 17:27:00,
2013-01-29 10:32:00,18.0,-7.0,29.84,West,265,17.3,17.3,32,0.00,CLR,,0.00,WeatherDisplay:10.37,2013-01-29 17:32:00,
2013-01-29 10:37:00,18.1,-7.5,29.84,WSW,245,16.1,16.1,31,0.00,CLR,,0.00,WeatherDisplay:10.37,2013-01-29 17:37:00,
2013-01-29 10:42:00,18.0,-5.7,29.84,SW,217,20.0,20.0,34,0.00,CLR,,0.00,WeatherDisplay:10.37,2013-01-29 17:42:00,
2013-01-29 10:47:00,18.0,-7.0,29.84,WSW,251,17.3,17.3,32,0.00,CLR,,0.00,WeatherDisplay:10.37,2013-01-29 17:47:00,
2013-01-29 10:52:00,18.6,-6.4,29.84,SW,231,18.4,18.4,32,0.00,CLR,,0.00,WeatherDisplay:10.37,2013-01-29 17:52:00,
2013-01-29 10:57:00,18.8,-9.0,29.84,WSW,256,12.7,12.7,28,0.00,CLR,,0.00,WeatherDisplay:10.37,2013-01-29 17:57:00,
2013-01-29 11:02:00,19.2,-7.2,29.83,WSW,248,11.5,11.5,30,0.00,CLR,,0.00,WeatherDisplay:10.37,2013-01-29 18:02:00,
2013-01-29 11:07:00,19.5,-6.3,29.83,West,276,17.3,17.3,31,0.00,CLR,,0.00,WeatherDisplay:10.37,2013-01-29 18:07:00,
2013-01-29 11:12:00,19.4,-7.7,29.83,West,269,17.3,17.3,29,0.00,CLR,,0.00,WeatherDisplay:10.37,2013-01-29 18:12:00,
2013-01-29 11:17:00,19.7,-6.8,29.83,SW,230,17.3,17.3,30,0.00,CLR,,0.00,WeatherDisplay:10.37,2013-01-29 18:17:00,
2013-01-29 11:22:00,19.9,-8.0,29.83,West,262,16.0,16.0,28,0.00,CLR,,0.00,WeatherDisplay:10.37,2013-01-29 18:22:00,
2013-01-29 11:27:00,20.0,-7.9,29.83,West,268,17.3,17.3,28,0.00,CLR,,0.00,WeatherDisplay:10.37,2013-01-29 18:27:00,
2013-01-29 11:32:00,20.0,-7.9,29.83,SW,214,11.0,11.0,28,0.00,CLR,,0.00,WeatherDisplay:10.37,2013-01-29 18:32:00,
2013-01-29 11:37:00,20.2,-7.0,29.83,SW,234,12.7,12.7,29,0.00,CLR,,0.00,WeatherDisplay:10.37,2013-01-29 18:37:00,
2013-01-29 11:42:00,20.2,-7.0,29.83,SW,225,17.0,17.0,29,0.00,CLR,,0.00,WeatherDisplay:10.37,2013-01-29 18:42:00,
2013-01-29 11:47:00,20.0,-6.5,29.83,West,272,19.6,19.6,30,0.00,CLR,,0.00,WeatherDisplay:10.37,2013-01-29 18:47:00,
2013-01-29 11:52:00,20.3,-7.0,29.83,West,265,16.1,16.1,29,0.00,CLR,,0.00,WeatherDisplay:10.37,2013-01-29 18:52:00,
2013-01-29 11:57:00,20.6,-7.4,29.83,West,261,16.1,16.1,28,0.00,CLR,,0.00,WeatherDisplay:10.37,2013-01-29 18:57:00,
2013-01-29 12:02:00,20.8,-5.8,29.80,WSW,254,19.6,19.6,30,0.00,CLR,,0.00,WeatherDisplay:10.37,2013-01-29 19:02:00,
2013-01-29 12:07:00,20.8,-6.5,29.80,WSW,245,13.8,13.8,29,0.00,CLR,,0.00,WeatherDisplay:10.37,2013-01-29 19:07:00,
2013-01-29 12:12:00,20.5,-6.8,29.80,West,275,21.9,21.9,29,0.00,CLR,,0.00,WeatherDisplay:10.37,2013-01-29 19:12:00,
2013-01-29 12:17:00,20.6,-6.0,29.82,West,276,13.8,13.8,30,0.00,CLR,,0.00,WeatherDisplay:10.37,2013-01-29 19:17:00,
2013-01-29 12:22:00,21.1,-4.9,29.82,WSW,245,19.0,19.0,31,0.00,CLR,,0.00,WeatherDisplay:10.37,2013-01-29 19:22:00,
2013-01-29 12:27:00,20.8,-5.1,29.82,West,268,17.3,17.3,31,0.00,CLR,,0.00,WeatherDisplay:10.37,2013-01-29 19:27:00,
2013-01-29 12:32:00,21.4,-5.3,29.81,WSW,240,12.7,12.7,30,0.00,CLR,,0.00,WeatherDisplay:10.37,2013-01-29 19:32:00,
2013-01-29 12:37:00,22.4,-3.7,29.81,SW,234,22.0,22.0,31,0.00,CLR,,0.00,WeatherDisplay:10.37,2013-01-29 19:37:00,
2013-01-29 12:42:00,21.9,-6.3,29.81,WSW,244,25.3,25.3,28,0.00,CLR,,0.00,WeatherDisplay:10.37,2013-01-29 19:42:00,
2013-01-29 12:47:00,22.1,-6.1,29.79,West,269,11.5,11.5,28,0.00,CLR,,0.00,WeatherDisplay:10.37,2013-01-29 19:47:00,
2013-01-29 12:52:00,21.9,-6.3,29.79,SW,232,16.1,16.1,28,0.00,CLR,,0.00,WeatherDisplay:10.37,2013-01-29 19:52:00,
2013-01-29 12:57:00,21.8,-6.4,29.79,West,275,18.4,18.4,28,0.00,CLR,,0.00,WeatherDisplay:10.37,2013-01-29 19:57:00,
2013-01-29 13:01:00,22.1,-4.0,29.79,West,279,12.7,12.7,31,0.00,CLR,,0.00,WeatherDisplay:10.37,2013-01-29 20:01:00,
2013-01-29 13:06:00,22.9,-2.6,29.79,West,275,11.5,11.5,32,0.00,CLR,,0.00,WeatherDisplay:10.37,2013-01-29 20:06:00,
2013-01-29 13:11:00,22.7,-4.9,29.79,WNW,292,17.3,17.3,29,0.00,CLR,,0.00,WeatherDisplay:10.37,2013-01-29 20:11:00,
2013-01-29 13:16:00,22.4,-5.8,29.81,West,276,10.4,10.4,28,0.00,CLR,,0.00,WeatherDisplay:10.37,2013-01-29 20:16:00,
2013-01-29 13:21:00,22.9,-4.7,29.81,WSW,244,20.7,20.7,29,0.00,CLR,,0.00,WeatherDisplay:10.37,2013-01-29 20:21:00,
2013-01-29 13:26:00,22.9,-4.7,29.81,West,264,19.6,19.6,29,0.00,CLR,,0.00,WeatherDisplay:10.37,2013-01-29 20:26:00,
2013-01-29 13:31:00,22.4,-3.7,29.79,SSW,213,19.6,19.6,31,0.00,CLR,,0.00,WeatherDisplay:10.37,2013-01-29 20:31:00,
2013-01-29 13:36:00,22.4,-3.7,29.79,West,271,17.0,17.0,31,0.00,CLR,,0.00,WeatherDisplay:10.37,2013-01-29 20:36:00,
2013-01-29 13:41:00,21.9,-4.2,29.79,WSW,244,17.3,17.3,31,0.00,CLR,,0.00,WeatherDisplay:10.37,2013-01-29 20:41:00,
2013-01-29 13:46:00,22.7,-2.1,29.80,West,269,14.0,14.0,33,0.00,CLR,,0.00,WeatherDisplay:10.37,2013-01-29 20:46:00,
2013-01-29 13:51:00,22.7,-4.9,29.80,NNW,337,16.1,16.1,29,0.00,CLR,,0.00,WeatherDisplay:10.37,2013-01-29 20:51:00,
2013-01-29 13:56:00,23.2,-5.1,29.80,WSW,244,20.7,20.7,28,0.00,CLR,,0.00,WeatherDisplay:10.37,2013-01-29 20:56:00,
2013-01-29 14:01:00,22.4,-3.7,29.82,WSW,256,17.3,17.3,31,0.00,CLR,,0.00,WeatherDisplay:10.37,2013-01-29 21:01:00,
2013-01-29 14:06:00,22.5,-6.5,29.82,West,262,18.4,18.4,27,0.00,CLR,,0.00,WeatherDisplay:10.37,2013-01-29 21:06:00,
2013-01-29 14:11:00,22.7,-5.6,29.82,WSW,244,12.7,12.7,28,0.00,CLR,,0.00,WeatherDisplay:10.37,2013-01-29 21:11:00,
2013-01-29 14:16:00,22.5,-5.8,29.83,SW,232,11.5,11.5,28,0.00,CLR,,0.00,WeatherDisplay:10.37,2013-01-29 21:16:00,
2013-01-29 14:21:00,21.8,-7.9,29.83,WNW,292,17.3,17.3,26,0.00,CLR,,0.00,WeatherDisplay:10.37,2013-01-29 21:21:00,
2013-01-29 14:26:00,21.1,-7.7,29.83,West,272,10.4,10.4,27,0.00,CLR,,0.00,WeatherDisplay:10.37,2013-01-29 21:26:00,
2013-01-29 14:31:00,21.4,-6.7,29.85,WNW,296,11.5,11.5,28,0.00,CLR,,0.00,WeatherDisplay:10.37,2013-01-29 21:31:00,
2013-01-29 14:36:00,22.7,-3.5,29.85,West,262,19.6,19.6,31,0.00,CLR,,0.00,WeatherDisplay:10.37,2013-01-29 21:36:00,
2013-01-29 14:41:00,22.1,-6.1,29.85,WSW,254,5.8,5.8,28,0.00,CLR,,0.00,WeatherDisplay:10.37,2013-01-29 21:41:00,
2013-01-29 14:46:00,22.2,-6.0,29.84,WNW,297,11.5,11.5,28,0.00,CLR,,0.00,WeatherDisplay:10.37,2013-01-29 21:46:00,
2013-01-29 14:51:00,22.2,-6.8,29.84,SW,235,12.7,12.7,27,0.00,CLR,,0.00,WeatherDisplay:10.37,2013-01-29 21:51:00,
2013-01-29 14:56:00,21.3,-6.8,29.84,West,272,13.8,13.8,28,0.00,CLR,,0.00,WeatherDisplay:10.37,2013-01-29 21:56:00,
2013-01-29 15:01:00,20.8,-7.2,29.87,WNW,296,11.5,11.5,28,0.00,CLR,,0.00,WeatherDisplay:10.37,2013-01-29 22:01:00,
2013-01-29 15:06:00,21.3,-4.7,29.87,West,279,6.0,6.0,31,0.00,CLR,,0.00,WeatherDisplay:10.37,2013-01-29 22:06:00,
2013-01-29 15:11:00,21.3,-7.6,29.87,NW,304,8.1,8.1,27,0.00,CLR,,0.00,WeatherDisplay:10.37,2013-01-29 22:11:00,
2013-01-29 15:16:00,20.6,-5.3,29.89,WSW,249,8.1,8.1,31,0.00,CLR,,0.00,WeatherDisplay:10.37,2013-01-29 22:16:00,
2013-01-29 15:21:00,20.0,-3.9,29.89,SW,230,6.9,6.9,34,0.00,CLR,,0.00,WeatherDisplay:10.37,2013-01-29 22:21:00,
2013-01-29 15:26:00,19.2,-4.0,29.89,WSW,252,10.4,10.4,35,0.00,CLR,,0.00,WeatherDisplay:10.37,2013-01-29 22:26:00,
2013-01-29 15:31:00,18.8,-2.7,29.91,West,265,8.1,8.1,38,0.00,CLR,,0.00,WeatherDisplay:10.37,2013-01-29 22:31:00,
2013-01-29 15:36:00,19.4,-2.7,29.91,WSW,252,8.1,8.1,37,0.00,CLR,,0.00,WeatherDisplay:10.37,2013-01-29 22:36:00,
2013-01-29 15:41:00,20.2,-4.4,29.91,West,268,11.5,11.5,33,0.00,CLR,,0.00,WeatherDisplay:10.37,2013-01-29 22:41:00,
2013-01-29 15:46:00,20.6,-3.4,29.90,West,278,6.9,6.9,34,0.00,CLR,,0.00,WeatherDisplay:10.37,2013-01-29 22:46:00,
2013-01-29 15:51:00,21.4,-4.6,29.90,WSW,254,5.8,5.8,31,0.00,CLR,,0.00,WeatherDisplay:10.37,2013-01-29 22:51:00,
2013-01-29 15:56:00,21.3,-5.4,29.90,WSW,245,11.5,11.5,30,0.00,CLR,,0.00,WeatherDisplay:10.37,2013-01-29 22:56:00,
2013-01-29 16:01:00,20.3,-7.7,29.91,West,279,11.5,11.5,28,0.00,CLR,,0.00,WeatherDisplay:10.37,2013-01-29 23:01:00,
2013-01-29 16:06:00,20.5,-7.5,29.91,West,271,11.5,11.5,28,0.00,CLR,,0.00,WeatherDisplay:10.37,2013-01-29 23:06:00,
2013-01-29 16:11:00,20.5,-7.5,29.91,NW,310,5.8,5.8,28,0.00,CLR,,0.00,WeatherDisplay:10.37,2013-01-29 23:11:00,
2013-01-29 16:16:00,20.0,-7.9,29.94,West,268,8.1,8.1,28,0.00,CLR,,0.00,WeatherDisplay:10.37,2013-01-29 23:16:00,
2013-01-29 16:21:00,19.4,-7.7,29.94,WSW,244,7.0,7.0,29,0.00,CLR,,0.00,WeatherDisplay:10.37,2013-01-29 23:21:00,
2013-01-29 16:26:00,18.6,-7.8,29.94,WNW,286,5.8,5.8,30,0.00,CLR,,0.00,WeatherDisplay:10.37,2013-01-29 23:26:00,
2013-01-29 16:31:00,18.0,-8.3,29.97,WNW,299,6.9,6.9,30,0.00,CLR,,0.00,WeatherDisplay:10.37,2013-01-29 23:31:00,
2013-01-29 16:36:00,17.5,-8.0,29.97,West,259,4.6,4.6,31,0.00,CLR,,0.00,WeatherDisplay:10.37,2013-01-29 23:36:00,
2013-01-29 16:41:00,17.3,-7.6,29.97,WSW,244,6.0,6.0,32,0.00,CLR,,0.00,WeatherDisplay:10.37,2013-01-29 23:41:00,
2013-01-29 16:46:00,16.9,-5.5,29.99,WSW,248,18.4,18.4,36,0.00,CLR,,0.00,WeatherDisplay:10.37,2013-01-29 23:46:00,
2013-01-29 16:51:00,16.4,-3.8,29.99,West,265,11.5,11.5,40,0.00,CLR,,0.00,WeatherDisplay:10.37,2013-01-29 23:51:00,
2013-01-29 16:56:00,16.1,-3.0,29.99,West,280,6.9,6.9,42,0.00,CLR,,0.00,WeatherDisplay:10.37,2013-01-29 23:56:00,
2013-01-29 17:01:00,15.9,-2.7,30.00,WSW,256,6.0,6.0,43,0.00,CLR,,0.00,WeatherDisplay:10.37,2013-01-30 00:01:00,
2013-01-29 17:06:00,15.7,-2.9,30.00,West,275,4.6,4.6,43,0.00,CLR,,0.00,WeatherDisplay:10.37,2013-01-30 00:06:00,
2013-01-29 17:11:00,15.6,-3.0,30.00,West,273,6.9,6.9,43,0.00,CLR,,0.00,WeatherDisplay:10.37,2013-01-30 00:11:00,
2013-01-29 17:16:00,15.6,-3.5,30.01,NW,306,4.6,4.6,42,0.00,CLR,,0.00,WeatherDisplay:10.37,2013-01-30 00:16:00,
2013-01-29 17:21:00,15.4,-4.1,30.01,NW,306,2.3,2.3,41,0.00,CLR,,0.00,WeatherDisplay:10.37,2013-01-30 00:21:00,
2013-01-29 17:26:00,15.4,-4.7,30.01,WNW,303,4.6,4.6,40,0.00,CLR,,0.00,WeatherDisplay:10.37,2013-01-30 00:26:00,
2013-01-29 17:31:00,15.4,-4.7,30.04,WNW,296,5.8,5.8,40,0.00,CLR,,0.00,WeatherDisplay:10.37,2013-01-30 00:31:00,
2013-01-29 17:36:00,15.7,-6.0,30.04,WNW,296,3.5,3.5,37,0.00,CLR,,0.00,WeatherDisplay:10.37,2013-01-30 00:36:00,
2013-01-29 17:41:00,15.6,-5.5,30.04,WNW,296,1.2,0.0,38,0.00,CLR,,0.00,WeatherDisplay:10.37,2013-01-30 00:41:00,
2013-01-29 17:46:00,15.4,-5.2,30.05,WNW,296,3.5,3.5,39,0.00,CLR,,0.00,WeatherDisplay:10.37,2013-01-30 00:46:00,
2013-01-29 17:51:00,15.4,-6.8,30.05,West,276,8.1,8.1,36,0.00,CLR,,0.00,WeatherDisplay:10.37,2013-01-30 00:51:00,
2013-01-29 17:56:00,15.6,-6.7,30.05,WNW,285,5.8,5.8,36,0.00,CLR,,0.00,WeatherDisplay:10.37,2013-01-30 00:56:00,
2013-01-29 18:01:00,15.6,-6.7,30.04,WNW,297,3.5,3.5,36,0.00,CLR,,0.00,WeatherDisplay:10.37,2013-01-30 01:01:00,
2013-01-29 18:06:00,15.4,-6.8,30.04,WNW,297,3.5,3.5,36,0.00,CLR,,0.00,WeatherDisplay:10.37,2013-01-30 01:06:00,
2013-01-29 18:11:00,15.2,-7.0,30.04,West,266,11.0,11.0,36,0.00,CLR,,0.00,WeatherDisplay:10.37,2013-01-30 01:11:00,
2013-01-29 18:16:00,15.2,-7.6,30.06,WNW,289,4.6,4.6,35,0.00,CLR,,0.00,WeatherDisplay:10.37,2013-01-30 01:16:00,
2013-01-29 18:21:00,15.1,-7.1,30.06,WNW,282,2.3,2.3,36,0.00,CLR,,0.00,WeatherDisplay:10.37,2013-01-30 01:21:00,
2013-01-29 18:26:00,14.8,-6.8,30.06,WNW,282,3.0,3.0,37,0.00,CLR,,0.00,WeatherDisplay:10.37,2013-01-30 01:26:00,
2013-01-29 18:31:00,14.4,-6.6,30.07,WNW,299,4.6,4.6,38,0.00,CLR,,0.00,WeatherDisplay:10.37,2013-01-30 01:31:00,
2013-01-29 18:36:00,14.3,-6.7,30.07,West,275,5.0,5.0,38,0.00,CLR,,0.00,WeatherDisplay:10.37,2013-01-30 01:36:00,
2013-01-29 18:41:00,14.3,-6.2,30.07,NW,310,3.5,3.5,39,0.00,CLR,,0.00,WeatherDisplay:10.37,2013-01-30 01:41:00,
2013-01-29 18:46:00,14.3,-6.2,30.08,NW,304,3.5,3.5,39,0.00,CLR,,0.00,WeatherDisplay:10.37,2013-01-30 01:46:00,
2013-01-29 18:51:00,14.3,-5.7,30.08,NW,310,3.5,3.5,40,0.00,CLR,,0.00,WeatherDisplay:10.37,2013-01-30 01:51:00,
2013-01-29 18:56:00,14.1,-5.8,30.08,NW,310,0.0,0.0,40,0.00,CLR,,0.00,WeatherDisplay:10.37,2013-01-30 01:56:00,
2013-01-29 19:01:00,13.8,-5.6,30.09,NW,310,2.0,2.0,41,0.00,CLR,,0.00,WeatherDisplay:10.37,2013-01-30 02:01:00,
2013-01-29 19:06:00,13.5,-5.9,30.09,NW,309,3.5,3.5,41,0.00,CLR,,0.00,WeatherDisplay:10.37,2013-01-30 02:06:00,
2013-01-29 19:11:00,13.5,-5.4,30.09,WNW,296,4.6,4.6,42,0.00,CLR,,0.00,WeatherDisplay:10.37,2013-01-30 02:11:00,
2013-01-29 19:16:00,13.3,-5.6,30.11,WNW,302,2.3,2.3,42,0.00,CLR,,0.00,WeatherDisplay:10.37,2013-01-30 02:16:00,
2013-01-29 19:21:00,13.1,-5.7,30.11,WNW,302,3.5,3.5,42,0.00,CLR,,0.00,WeatherDisplay:10.37,2013-01-30 02:21:00,
2013-01-29 19:26:00,12.8,-5.5,30.11,NW,304,2.3,2.3,43,0.00,CLR,,0.00,WeatherDisplay:10.37,2013-01-30 02:26:00,
2013-01-29 19:31:00,12.4,-5.4,30.11,NW,304,2.3,2.3,44,0.00,CLR,,0.00,WeatherDisplay:10.37,2013-01-30 02:31:00,
2013-01-29 19:36:00,12.1,-5.7,30.11,NW,304,1.2,1.2,44,0.00,CLR,,0.00,WeatherDisplay:10.37,2013-01-30 02:36:00,
2013-01-29 19:41:00,11.7,-5.6,30.11,NW,304,2.3,2.3,45,0.00,CLR,,0.00,WeatherDisplay:10.37,2013-01-30 02:41:00,
2013-01-29 19:46:00,11.6,-5.7,30.14,NW,304,2.3,2.3,45,0.00,CLR,,0.00,WeatherDisplay:10.37,2013-01-30 02:46:00,
2013-01-29 19:51:00,11.4,-5.4,30.14,NW,304,3.5,3.5,46,0.00,CLR,,0.00,WeatherDisplay:10.37,2013-01-30 02:51:00,
2013-01-29 19:56:00,11.2,-5.1,30.14,NW,304,2.3,2.3,47,0.00,CLR,,0.00,WeatherDisplay:10.37,2013-01-30 02:56:00,
2013-01-29 20:01:00,10.9,-5.0,30.15,NW,304,2.3,2.3,48,0.00,CLR,,0.00,WeatherDisplay:10.37,2013-01-30 03:01:00,
2013-01-29 20:06:00,10.5,-4.9,30.15,NW,304,2.3,2.3,49,0.00,CLR,,0.00,WeatherDisplay:10.37,2013-01-30 03:06:00,
2013-01-29 20:11:00,10.2,-4.8,30.15,NNW,328,3.0,3.0,50,0.00,CLR,,0.00,WeatherDisplay:10.37,2013-01-30 03:11:00,
2013-01-29 20:16:00,10.0,-4.6,30.15,NNW,330,2.3,2.3,51,0.00,CLR,,0.00,WeatherDisplay:10.37,2013-01-30 03:16:00,
2013-01-29 20:21:00,9.7,-4.8,30.15,NNW,328,2.3,2.3,51,0.00,CLR,,0.00,WeatherDisplay:10.37,2013-01-30 03:21:00,
2013-01-29 20:26:00,9.3,-4.8,30.15,NNW,330,0.0,0.0,52,0.00,CLR,,0.00,WeatherDisplay:10.37,2013-01-30 03:26:00,
2013-01-29 20:31:00,9.2,-4.9,30.17,NNW,328,2.3,2.3,52,0.00,CLR,,0.00,WeatherDisplay:10.37,2013-01-30 03:31:00,
2013-01-29 20:36:00,8.8,-5.3,30.17,NNW,328,3.5,3.5,52,0.00,CLR,,0.00,WeatherDisplay:10.37,2013-01-30 03:36:00,
2013-01-29 20:41:00,9.2,-4.5,30.17,NNW,328,2.0,2.0,53,0.00,CLR,,0.00,WeatherDisplay:10.37,2013-01-30 03:41:00,
2013-01-29 20:46:00,9.3,-4.8,30.18,WNW,297,5.8,5.8,52,0.00,CLR,,0.00,WeatherDisplay:10.37,2013-01-30 03:46:00,
2013-01-29 20:51:00,9.9,-5.1,30.18,WNW,297,4.6,4.6,50,0.00,CLR,,0.00,WeatherDisplay:10.37,2013-01-30 03:51:00,
2013-01-29 20:56:00,10.4,-4.6,30.18,WNW,297,5.8,5.8,50,0.00,CLR,,0.00,WeatherDisplay:10.37,2013-01-30 03:56:00,
2013-01-29 21:01:00,10.7,-4.7,30.16,WNW,297,2.3,2.3,49,0.00,CLR,,0.00,WeatherDisplay:10.37,2013-01-30 04:01:00,
2013-01-29 21:06:00,10.0,-5.4,30.16,North,350,3.5,3.5,49,0.00,CLR,,0.00,WeatherDisplay:10.37,2013-01-30 04:06:00,
2013-01-29 21:11:00,9.2,-5.3,30.16,North,350,2.0,2.0,51,0.00,CLR,,0.00,WeatherDisplay:10.37,2013-01-30 04:11:00,
2013-01-29 21:16:00,8.6,-5.9,30.15,North,350,1.2,1.2,51,0.00,CLR,,0.00,WeatherDisplay:10.37,2013-01-30 04:16:00,
2013-01-29 21:21:00,8.3,-5.7,30.15,North,350,1.2,1.2,52,0.00,CLR,,0.00,WeatherDisplay:10.37,2013-01-30 04:21:00,
2013-01-29 21:26:00,7.7,-6.3,30.15,North,350,2.0,2.0,52,0.00,CLR,,0.00,WeatherDisplay:10.37,2013-01-30 04:26:00,
2013-01-29 21:31:00,7.2,-6.4,30.17,North,350,1.2,1.2,53,0.00,CLR,,0.00,WeatherDisplay:10.37,2013-01-30 04:31:00,
2013-01-29 21:36:00,7.2,-6.0,30.17,North,350,1.2,0.0,54,0.00,CLR,,0.00,WeatherDisplay:10.37,2013-01-30 04:36:00,
2013-01-29 21:41:00,7.0,-6.2,30.17,North,350,1.2,1.2,54,0.00,CLR,,0.00,WeatherDisplay:10.37,2013-01-30 04:41:00,
2013-01-29 21:46:00,7.0,-6.2,30.17,North,350,3.5,3.5,54,0.00,CLR,,0.00,WeatherDisplay:10.37,2013-01-30 04:46:00,
2013-01-29 21:51:00,6.9,-6.3,30.17,North,351,4.6,4.6,54,0.00,CLR,,0.00,WeatherDisplay:10.37,2013-01-30 04:51:00,
2013-01-29 21:56:00,6.3,-6.8,30.17,North,351,1.2,1.2,54,0.00,CLR,,0.00,WeatherDisplay:10.37,2013-01-30 04:56:00,
2013-01-29 22:03:00,6.0,-6.7,30.20,North,351,2.3,2.3,55,0.00,CLR,,0.00,WeatherDisplay:10.37,2013-01-30 05:03:00,
2013-01-29 22:05:00,5.8,-6.9,30.20,North,351,1.2,0.0,55,0.00,CLR,,0.00,WeatherDisplay:10.37,2013-01-30 05:05:00,
2013-01-29 22:10:00,5.6,-6.7,30.20,North,351,0.0,0.0,56,0.00,CLR,,0.00,WeatherDisplay:10.37,2013-01-30 05:10:00,
2013-01-29 22:15:00,5.4,-6.9,30.18,North,351,2.3,2.3,56,0.00,CLR,,0.00,WeatherDisplay:10.37,2013-01-30 05:15:00,
2013-01-29 22:20:00,5.4,-6.9,30.18,NNW,344,2.3,2.3,56,0.00,CLR,,0.00,WeatherDisplay:10.37,2013-01-30 05:20:00,
2013-01-29 22:25:00,5.4,-6.6,30.18,WNW,300,5.0,5.0,57,0.00,CLR,,0.00,WeatherDisplay:10.37,2013-01-30 05:25:00,
2013-01-29 22:30:00,7.7,-5.5,30.16,West,272,3.0,3.0,54,0.00,CLR,,0.00,WeatherDisplay:10.37,2013-01-30 05:30:00,
2013-01-29 22:35:00,9.0,-6.3,30.16,West,280,4.6,4.6,49,0.00,CLR,,0.00,WeatherDisplay:10.37,2013-01-30 05:35:00,
2013-01-29 22:40:00,9.7,-6.5,30.16,West,280,5.0,5.0,47,0.00,CLR,,0.00,WeatherDisplay:10.37,2013-01-30 05:40:00,
2013-01-29 22:45:00,10.0,-6.7,30.14,WNW,292,6.0,6.0,46,0.00,CLR,,0.00,WeatherDisplay:10.37,2013-01-30 05:45:00,
2013-01-29 22:50:00,10.0,-7.1,30.14,NW,304,2.3,2.3,45,0.00,CLR,,0.00,WeatherDisplay:10.37,2013-01-30 05:50:00,
2013-01-29 22:55:00,9.7,-7.4,30.14,NW,314,3.5,3.5,45,0.00,CLR,,0.00,WeatherDisplay:10.37,2013-01-30 05:55:00,
2013-01-29 23:00:00,9.7,-7.4,30.14,WNW,302,5.8,5.8,45,0.00,CLR,,0.00,WeatherDisplay:10.37,2013-01-30 06:00:00,
2013-01-29 23:05:00,9.9,-7.7,30.14,WNW,300,4.6,4.6,44,0.00,CLR,,0.00,WeatherDisplay:10.37,2013-01-30 06:05:00,
2013-01-29 23:10:00,10.0,-7.1,30.14,NW,306,5.0,5.0,45,0.00,CLR,,0.00,WeatherDisplay:10.37,2013-01-30 06:10:00,
2013-01-29 23:15:00,10.0,-6.7,30.13,NW,316,5.8,5.8,46,0.00,CLR,,0.00,WeatherDisplay:10.37,2013-01-30 06:15:00,
2013-01-29 23:20:00,10.0,-6.7,30.13,WNW,303,3.5,3.5,46,0.00,CLR,,0.00,WeatherDisplay:10.37,2013-01-30 06:20:00,
2013-01-29 23:25:00,10.0,-6.7,30.13,WNW,303,3.5,3.5,46,0.00,CLR,,0.00,WeatherDisplay:10.37,2013-01-30 06:25:00,
2013-01-29 23:30:00,9.9,-6.8,30.13,NW,306,2.3,2.3,46,0.00,CLR,,0.00,WeatherDisplay:10.37,2013-01-30 06:30:00,
2013-01-29 23:35:00,9.5,-6.7,30.13,NW,313,3.5,3.5,47,0.00,CLR,,0.00,WeatherDisplay:10.37,2013-01-30 06:35:00,
2013-01-29 23:40:00,9.2,-7.0,30.13,WNW,302,5.8,5.8,47,0.00,CLR,,0.00,WeatherDisplay:10.37,2013-01-30 06:40:00,
2013-01-29 23:45:00,9.3,-7.3,30.12,West,279,2.3,2.3,46,0.00,CLR,,0.00,WeatherDisplay:10.37,2013-01-30 06:45:00,
2013-01-29 23:50:00,9.2,-7.4,30.12,WNW,296,3.5,3.5,46,0.00,CLR,,0.00,WeatherDisplay:10.37,2013-01-30 06:50:00,
2013-01-29 23:55:00,9.9,-7.7,30.12,WNW,302,5.0,5.0,44,0.00,CLR,,0.00,WeatherDisplay:10.37,2013-01-30 06:55:00,